sensor_id;sensor_type;location;lat;lon;timestamp;P1;durP1;ratioP1;P2;durP2;ratioP2
75760;SDS011;64373;46.136;8.830;2023-11-19T00:01:26;0.57;;;0.30;;
75760;SDS011;64373;46.136;8.830;2023-11-19T00:03:52;0.50;;;0.32;;
75760;SDS011;64373;46.136;8.830;2023-11-19T00:06:18;0.25;;;0.20;;
75760;SDS011;64373;46.136;8.830;2023-11-19T00:08:44;1.13;;;0.30;;
75760;SDS011;64373;46.136;8.830;2023-11-19T00:11:09;0.40;;;0.30;;
75760;SDS011;64373;46.136;8.830;2023-11-19T00:13:36;0.40;;;0.30;;
75760;SDS011;64373;46.136;8.830;2023-11-19T00:16:02;0.50;;;0.30;;
75760;SDS011;64373;46.136;8.830;2023-11-19T00:18:29;0.73;;;0.32;;
75760;SDS011;64373;46.136;8.830;2023-11-19T00:20:55;0.60;;;0.32;;
75760;SDS011;64373;46.136;8.830;2023-11-19T00:23:20;0.88;;;0.32;;
75760;SDS011;64373;46.136;8.830;2023-11-19T00:25:46;0.50;;;0.20;;
75760;SDS011;64373;46.136;8.830;2023-11-19T00:28:13;0.70;;;0.40;;
75760;SDS011;64373;46.136;8.830;2023-11-19T00:30:38;0.77;;;0.30;;
75760;SDS011;64373;46.136;8.830;2023-11-19T00:33:05;0.88;;;0.38;;
75760;SDS011;64373;46.136;8.830;2023-11-19T00:35:31;1.08;;;0.60;;
75760;SDS011;64373;46.136;8.830;2023-11-19T00:37:57;0.88;;;0.38;;
75760;SDS011;64373;46.136;8.830;2023-11-19T00:40:22;0.70;;;0.50;;
75760;SDS011;64373;46.136;8.830;2023-11-19T00:42:49;0.57;;;0.22;;
75760;SDS011;64373;46.136;8.830;2023-11-19T00:45:14;0.40;;;0.22;;
75760;SDS011;64373;46.136;8.830;2023-11-19T00:47:40;0.40;;;0.30;;
75760;SDS011;64373;46.136;8.830;2023-11-19T00:50:06;0.60;;;0.30;;
75760;SDS011;64373;46.136;8.830;2023-11-19T00:52:35;0.63;;;0.20;;
75760;SDS011;64373;46.136;8.830;2023-11-19T00:55:02;0.63;;;0.38;;
75760;SDS011;64373;46.136;8.830;2023-11-19T00:57:28;0.25;;;0.20;;
75760;SDS011;64373;46.136;8.830;2023-11-19T00:59:53;1.00;;;0.43;;
75760;SDS011;64373;46.136;8.830;2023-11-19T01:02:19;0.20;;;0.20;;
75760;SDS011;64373;46.136;8.830;2023-11-19T01:04:45;0.40;;;0.20;;
75760;SDS011;64373;46.136;8.830;2023-11-19T01:07:10;0.75;;;0.40;;
75760;SDS011;64373;46.136;8.830;2023-11-19T01:09:38;0.20;;;0.20;;
75760;SDS011;64373;46.136;8.830;2023-11-19T01:12:03;0.38;;;0.30;;
75760;SDS011;64373;46.136;8.830;2023-11-19T01:14:29;0.30;;;0.13;;
75760;SDS011;64373;46.136;8.830;2023-11-19T01:16:56;0.55;;;0.30;;
75760;SDS011;64373;46.136;8.830;2023-11-19T01:19:22;0.43;;;0.20;;
75760;SDS011;64373;46.136;8.830;2023-11-19T01:21:51;0.55;;;0.20;;
75760;SDS011;64373;46.136;8.830;2023-11-19T01:24:17;0.60;;;0.22;;
75760;SDS011;64373;46.136;8.830;2023-11-19T01:26:45;0.73;;;0.40;;
75760;SDS011;64373;46.136;8.830;2023-11-19T01:29:14;0.40;;;0.25;;
75760;SDS011;64373;46.136;8.830;2023-11-19T01:31:43;0.50;;;0.30;;
75760;SDS011;64373;46.136;8.830;2023-11-19T01:34:10;0.80;;;0.20;;
75760;SDS011;64373;46.136;8.830;2023-11-19T01:36:36;0.75;;;0.40;;
75760;SDS011;64373;46.136;8.830;2023-11-19T01:39:02;0.73;;;0.30;;
75760;SDS011;64373;46.136;8.830;2023-11-19T01:41:33;0.20;;;0.20;;
75760;SDS011;64373;46.136;8.830;2023-11-19T01:44:00;0.80;;;0.40;;
75760;SDS011;64373;46.136;8.830;2023-11-19T01:46:25;0.30;;;0.20;;
75760;SDS011;64373;46.136;8.830;2023-11-19T01:48:51;1.35;;;0.45;;
75760;SDS011;64373;46.136;8.830;2023-11-19T01:51:19;0.55;;;0.22;;
75760;SDS011;64373;46.136;8.830;2023-11-19T01:53:45;0.43;;;0.30;;
75760;SDS011;64373;46.136;8.830;2023-11-19T01:56:11;0.30;;;0.20;;
75760;SDS011;64373;46.136;8.830;2023-11-19T01:58:39;0.38;;;0.20;;
75760;SDS011;64373;46.136;8.830;2023-11-19T02:01:06;0.57;;;0.30;;
75760;SDS011;64373;46.136;8.830;2023-11-19T02:03:32;0.35;;;0.30;;
75760;SDS011;64373;46.136;8.830;2023-11-19T02:05:59;0.88;;;0.30;;
75760;SDS011;64373;46.136;8.830;2023-11-19T02:08:25;0.30;;;0.20;;
75760;SDS011;64373;46.136;8.830;2023-11-19T02:10:51;0.50;;;0.50;;
75760;SDS011;64373;46.136;8.830;2023-11-19T02:13:17;0.65;;;0.20;;
75760;SDS011;64373;46.136;8.830;2023-11-19T02:15:43;0.60;;;0.38;;
75760;SDS011;64373;46.136;8.830;2023-11-19T02:18:19;0.90;;;0.30;;
75760;SDS011;64373;46.136;8.830;2023-11-19T02:20:51;0.57;;;0.40;;
75760;SDS011;64373;46.136;8.830;2023-11-19T02:23:17;1.10;;;0.40;;
75760;SDS011;64373;46.136;8.830;2023-11-19T02:25:57;0.73;;;0.30;;
75760;SDS011;64373;46.136;8.830;2023-11-19T02:28:30;0.88;;;0.40;;
75760;SDS011;64373;46.136;8.830;2023-11-19T02:30:58;0.43;;;0.20;;
75760;SDS011;64373;46.136;8.830;2023-11-19T02:33:24;0.40;;;0.20;;
75760;SDS011;64373;46.136;8.830;2023-11-19T02:35:50;0.32;;;0.20;;
75760;SDS011;64373;46.136;8.830;2023-11-19T02:38:16;0.40;;;0.20;;
75760;SDS011;64373;46.136;8.830;2023-11-19T02:40:42;0.20;;;0.20;;
75760;SDS011;64373;46.136;8.830;2023-11-19T02:43:07;0.38;;;0.20;;
75760;SDS011;64373;46.136;8.830;2023-11-19T02:45:33;0.50;;;0.30;;
75760;SDS011;64373;46.136;8.830;2023-11-19T02:47:59;0.57;;;0.32;;
75760;SDS011;64373;46.136;8.830;2023-11-19T02:50:28;0.50;;;0.40;;
75760;SDS011;64373;46.136;8.830;2023-11-19T02:52:54;0.88;;;0.40;;
75760;SDS011;64373;46.136;8.830;2023-11-19T02:55:23;0.45;;;0.30;;
75760;SDS011;64373;46.136;8.830;2023-11-19T02:57:50;0.73;;;0.30;;
75760;SDS011;64373;46.136;8.830;2023-11-19T03:00:18;0.90;;;0.30;;
75760;SDS011;64373;46.136;8.830;2023-11-19T03:02:49;0.68;;;0.20;;
75760;SDS011;64373;46.136;8.830;2023-11-19T03:05:23;0.50;;;0.35;;
75760;SDS011;64373;46.136;8.830;2023-11-19T03:07:49;0.98;;;0.38;;
75760;SDS011;64373;46.136;8.830;2023-11-19T03:10:15;0.95;;;0.40;;
75760;SDS011;64373;46.136;8.830;2023-11-19T03:12:41;0.95;;;0.38;;
75760;SDS011;64373;46.136;8.830;2023-11-19T03:15:08;0.50;;;0.30;;
75760;SDS011;64373;46.136;8.830;2023-11-19T03:17:43;1.23;;;0.30;;
75760;SDS011;64373;46.136;8.830;2023-11-19T03:20:10;0.57;;;0.30;;
75760;SDS011;64373;46.136;8.830;2023-11-19T03:22:42;0.57;;;0.40;;
75760;SDS011;64373;46.136;8.830;2023-11-19T03:25:09;1.23;;;0.40;;
75760;SDS011;64373;46.136;8.830;2023-11-19T03:27:35;0.65;;;0.40;;
75760;SDS011;64373;46.136;8.830;2023-11-19T03:30:08;0.57;;;0.20;;
75760;SDS011;64373;46.136;8.830;2023-11-19T03:32:37;0.68;;;0.40;;
75760;SDS011;64373;46.136;8.830;2023-11-19T03:35:04;0.45;;;0.20;;
75760;SDS011;64373;46.136;8.830;2023-11-19T03:37:32;0.65;;;0.40;;
75760;SDS011;64373;46.136;8.830;2023-11-19T03:39:58;0.70;;;0.30;;
75760;SDS011;64373;46.136;8.830;2023-11-19T03:42:28;0.93;;;0.50;;
75760;SDS011;64373;46.136;8.830;2023-11-19T03:44:57;0.93;;;0.20;;
75760;SDS011;64373;46.136;8.830;2023-11-19T03:47:23;0.43;;;0.30;;
75760;SDS011;64373;46.136;8.830;2023-11-19T03:49:50;0.20;;;0.13;;
75760;SDS011;64373;46.136;8.830;2023-11-19T03:52:16;0.40;;;0.30;;
75760;SDS011;64373;46.136;8.830;2023-11-19T03:54:42;0.30;;;0.30;;
75760;SDS011;64373;46.136;8.830;2023-11-19T03:57:08;0.50;;;0.30;;
75760;SDS011;64373;46.136;8.830;2023-11-19T03:59:35;0.22;;;0.20;;
75760;SDS011;64373;46.136;8.830;2023-11-19T04:02:01;0.55;;;0.32;;
75760;SDS011;64373;46.136;8.830;2023-11-19T04:04:27;0.30;;;0.20;;
75760;SDS011;64373;46.136;8.830;2023-11-19T04:06:54;0.25;;;0.10;;
75760;SDS011;64373;46.136;8.830;2023-11-19T04:09:20;0.63;;;0.20;;
75760;SDS011;64373;46.136;8.830;2023-11-19T04:11:45;0.20;;;0.20;;
75760;SDS011;64373;46.136;8.830;2023-11-19T04:14:12;0.47;;;0.20;;
75760;SDS011;64373;46.136;8.830;2023-11-19T04:16:38;1.05;;;0.32;;
75760;SDS011;64373;46.136;8.830;2023-11-19T04:19:04;0.50;;;0.22;;
75760;SDS011;64373;46.136;8.830;2023-11-19T04:21:31;0.70;;;0.30;;
75760;SDS011;64373;46.136;8.830;2023-11-19T04:23:57;0.50;;;0.17;;
75760;SDS011;64373;46.136;8.830;2023-11-19T04:26:23;0.82;;;0.30;;
75760;SDS011;64373;46.136;8.830;2023-11-19T04:28:49;0.50;;;0.20;;
75760;SDS011;64373;46.136;8.830;2023-11-19T04:31:14;0.80;;;0.20;;
75760;SDS011;64373;46.136;8.830;2023-11-19T04:33:41;0.20;;;0.20;;
75760;SDS011;64373;46.136;8.830;2023-11-19T04:36:08;0.68;;;0.30;;
75760;SDS011;64373;46.136;8.830;2023-11-19T04:38:35;0.35;;;0.20;;
75760;SDS011;64373;46.136;8.830;2023-11-19T04:41:00;0.47;;;0.32;;
75760;SDS011;64373;46.136;8.830;2023-11-19T04:43:26;0.35;;;0.30;;
75760;SDS011;64373;46.136;8.830;2023-11-19T04:45:51;0.60;;;0.30;;
75760;SDS011;64373;46.136;8.830;2023-11-19T04:48:17;0.40;;;0.25;;
75760;SDS011;64373;46.136;8.830;2023-11-19T04:50:43;0.40;;;0.20;;
75760;SDS011;64373;46.136;8.830;2023-11-19T04:53:08;0.20;;;0.20;;
75760;SDS011;64373;46.136;8.830;2023-11-19T04:55:34;0.52;;;0.20;;
75760;SDS011;64373;46.136;8.830;2023-11-19T04:57:59;0.30;;;0.20;;
75760;SDS011;64373;46.136;8.830;2023-11-19T05:00:25;0.60;;;0.30;;
75760;SDS011;64373;46.136;8.830;2023-11-19T05:02:51;0.60;;;0.30;;
75760;SDS011;64373;46.136;8.830;2023-11-19T05:05:16;0.20;;;0.20;;
75760;SDS011;64373;46.136;8.830;2023-11-19T05:07:42;0.50;;;0.30;;
75760;SDS011;64373;46.136;8.830;2023-11-19T05:10:08;0.60;;;0.30;;
75760;SDS011;64373;46.136;8.830;2023-11-19T05:12:34;0.30;;;0.20;;
75760;SDS011;64373;46.136;8.830;2023-11-19T05:15:00;0.57;;;0.35;;
75760;SDS011;64373;46.136;8.830;2023-11-19T05:17:26;0.30;;;0.20;;
75760;SDS011;64373;46.136;8.830;2023-11-19T05:19:51;1.40;;;0.40;;
75760;SDS011;64373;46.136;8.830;2023-11-19T05:22:17;0.50;;;0.30;;
75760;SDS011;64373;46.136;8.830;2023-11-19T05:24:43;0.40;;;0.30;;
75760;SDS011;64373;46.136;8.830;2023-11-19T05:27:09;1.20;;;0.77;;
75760;SDS011;64373;46.136;8.830;2023-11-19T05:29:39;1.33;;;0.35;;
75760;SDS011;64373;46.136;8.830;2023-11-19T05:32:06;0.82;;;0.40;;
75760;SDS011;64373;46.136;8.830;2023-11-19T05:34:32;0.98;;;0.35;;
75760;SDS011;64373;46.136;8.830;2023-11-19T05:36:57;0.75;;;0.40;;
75760;SDS011;64373;46.136;8.830;2023-11-19T05:39:23;0.65;;;0.32;;
75760;SDS011;64373;46.136;8.830;2023-11-19T05:41:49;0.40;;;0.30;;
75760;SDS011;64373;46.136;8.830;2023-11-19T05:44:15;0.30;;;0.30;;
75760;SDS011;64373;46.136;8.830;2023-11-19T05:46:41;0.52;;;0.32;;
75760;SDS011;64373;46.136;8.830;2023-11-19T05:49:11;0.40;;;0.30;;
75760;SDS011;64373;46.136;8.830;2023-11-19T05:51:40;0.20;;;0.20;;
75760;SDS011;64373;46.136;8.830;2023-11-19T05:54:09;0.52;;;0.30;;
75760;SDS011;64373;46.136;8.830;2023-11-19T05:56:35;0.90;;;0.40;;
75760;SDS011;64373;46.136;8.830;2023-11-19T05:59:01;0.50;;;0.30;;
75760;SDS011;64373;46.136;8.830;2023-11-19T06:01:29;0.70;;;0.30;;
75760;SDS011;64373;46.136;8.830;2023-11-19T06:03:54;0.68;;;0.20;;
75760;SDS011;64373;46.136;8.830;2023-11-19T06:06:20;0.43;;;0.38;;
75760;SDS011;64373;46.136;8.830;2023-11-19T06:08:46;0.80;;;0.47;;
75760;SDS011;64373;46.136;8.830;2023-11-19T06:11:12;0.50;;;0.30;;
75760;SDS011;64373;46.136;8.830;2023-11-19T06:13:43;0.40;;;0.35;;
75760;SDS011;64373;46.136;8.830;2023-11-19T06:16:09;1.33;;;0.38;;
75760;SDS011;64373;46.136;8.830;2023-11-19T06:18:34;0.50;;;0.30;;
75760;SDS011;64373;46.136;8.830;2023-11-19T06:21:01;0.30;;;0.22;;
75760;SDS011;64373;46.136;8.830;2023-11-19T06:23:27;0.30;;;0.20;;
75760;SDS011;64373;46.136;8.830;2023-11-19T06:25:52;0.73;;;0.30;;
75760;SDS011;64373;46.136;8.830;2023-11-19T06:28:18;0.50;;;0.30;;
75760;SDS011;64373;46.136;8.830;2023-11-19T06:30:44;1.40;;;0.38;;
75760;SDS011;64373;46.136;8.830;2023-11-19T06:33:13;0.50;;;0.20;;
75760;SDS011;64373;46.136;8.830;2023-11-19T06:35:39;0.38;;;0.30;;
75760;SDS011;64373;46.136;8.830;2023-11-19T06:38:05;0.77;;;0.38;;
75760;SDS011;64373;46.136;8.830;2023-11-19T06:40:31;0.63;;;0.30;;
75760;SDS011;64373;46.136;8.830;2023-11-19T06:43:00;0.60;;;0.30;;
75760;SDS011;64373;46.136;8.830;2023-11-19T06:45:27;0.30;;;0.30;;
75760;SDS011;64373;46.136;8.830;2023-11-19T06:47:53;0.43;;;0.20;;
75760;SDS011;64373;46.136;8.830;2023-11-19T06:50:19;0.40;;;0.30;;
75760;SDS011;64373;46.136;8.830;2023-11-19T06:52:44;0.35;;;0.22;;
75760;SDS011;64373;46.136;8.830;2023-11-19T06:55:10;0.73;;;0.38;;
75760;SDS011;64373;46.136;8.830;2023-11-19T06:57:36;0.68;;;0.47;;
75760;SDS011;64373;46.136;8.830;2023-11-19T07:00:02;0.93;;;0.40;;
75760;SDS011;64373;46.136;8.830;2023-11-19T07:02:30;0.77;;;0.30;;
75760;SDS011;64373;46.136;8.830;2023-11-19T07:04:56;0.80;;;0.50;;
75760;SDS011;64373;46.136;8.830;2023-11-19T07:07:22;0.30;;;0.30;;
75760;SDS011;64373;46.136;8.830;2023-11-19T07:09:47;0.40;;;0.30;;
75760;SDS011;64373;46.136;8.830;2023-11-19T07:12:13;1.67;;;0.43;;
75760;SDS011;64373;46.136;8.830;2023-11-19T07:14:39;0.55;;;0.40;;
75760;SDS011;64373;46.136;8.830;2023-11-19T07:17:07;0.68;;;0.40;;
75760;SDS011;64373;46.136;8.830;2023-11-19T07:19:34;0.93;;;0.40;;
75760;SDS011;64373;46.136;8.830;2023-11-19T07:22:01;0.50;;;0.30;;
75760;SDS011;64373;46.136;8.830;2023-11-19T07:24:27;1.40;;;0.40;;
75760;SDS011;64373;46.136;8.830;2023-11-19T07:26:53;0.30;;;0.22;;
75760;SDS011;64373;46.136;8.830;2023-11-19T07:29:19;0.32;;;0.20;;
75760;SDS011;64373;46.136;8.830;2023-11-19T07:31:48;0.60;;;0.30;;
75760;SDS011;64373;46.136;8.830;2023-11-19T07:34:14;0.30;;;0.30;;
75760;SDS011;64373;46.136;8.830;2023-11-19T07:36:40;0.60;;;0.25;;
75760;SDS011;64373;46.136;8.830;2023-11-19T07:39:06;0.47;;;0.28;;
75760;SDS011;64373;46.136;8.830;2023-11-19T07:41:31;3.03;;;0.40;;
75760;SDS011;64373;46.136;8.830;2023-11-19T07:43:57;0.32;;;0.25;;
75760;SDS011;64373;46.136;8.830;2023-11-19T07:46:23;0.55;;;0.30;;
75760;SDS011;64373;46.136;8.830;2023-11-19T07:48:50;0.38;;;0.30;;
75760;SDS011;64373;46.136;8.830;2023-11-19T07:51:15;0.52;;;0.38;;
75760;SDS011;64373;46.136;8.830;2023-11-19T07:53:41;0.63;;;0.30;;
75760;SDS011;64373;46.136;8.830;2023-11-19T07:56:07;0.77;;;0.30;;
75760;SDS011;64373;46.136;8.830;2023-11-19T07:58:33;0.50;;;0.25;;
75760;SDS011;64373;46.136;8.830;2023-11-19T08:00:59;0.13;;;0.10;;
75760;SDS011;64373;46.136;8.830;2023-11-19T08:03:24;0.20;;;0.15;;
75760;SDS011;64373;46.136;8.830;2023-11-19T08:05:50;0.25;;;0.20;;
75760;SDS011;64373;46.136;8.830;2023-11-19T08:08:16;0.35;;;0.30;;
75760;SDS011;64373;46.136;8.830;2023-11-19T08:10:42;0.45;;;0.30;;
75760;SDS011;64373;46.136;8.830;2023-11-19T08:13:09;0.65;;;0.30;;
75760;SDS011;64373;46.136;8.830;2023-11-19T08:15:36;0.65;;;0.40;;
75760;SDS011;64373;46.136;8.830;2023-11-19T08:18:01;1.00;;;0.50;;
75760;SDS011;64373;46.136;8.830;2023-11-19T08:20:27;1.92;;;0.88;;
75760;SDS011;64373;46.136;8.830;2023-11-19T08:22:53;0.60;;;0.40;;
75760;SDS011;64373;46.136;8.830;2023-11-19T08:25:18;1.33;;;0.63;;
75760;SDS011;64373;46.136;8.830;2023-11-19T08:27:44;1.25;;;0.50;;
75760;SDS011;64373;46.136;8.830;2023-11-19T08:30:10;1.02;;;0.60;;
75760;SDS011;64373;46.136;8.830;2023-11-19T08:32:36;1.33;;;0.57;;
75760;SDS011;64373;46.136;8.830;2023-11-19T08:35:01;0.65;;;0.38;;
75760;SDS011;64373;46.136;8.830;2023-11-19T08:37:27;1.00;;;0.45;;
75760;SDS011;64373;46.136;8.830;2023-11-19T08:39:53;0.43;;;0.30;;
75760;SDS011;64373;46.136;8.830;2023-11-19T08:42:18;0.90;;;0.63;;
75760;SDS011;64373;46.136;8.830;2023-11-19T08:44:48;0.70;;;0.30;;
75760;SDS011;64373;46.136;8.830;2023-11-19T08:47:15;0.47;;;0.20;;
75760;SDS011;64373;46.136;8.830;2023-11-19T08:49:43;0.32;;;0.20;;
75760;SDS011;64373;46.136;8.830;2023-11-19T08:52:09;0.50;;;0.20;;
75760;SDS011;64373;46.136;8.830;2023-11-19T08:54:35;0.45;;;0.30;;
75760;SDS011;64373;46.136;8.830;2023-11-19T08:57:07;0.20;;;0.20;;
75760;SDS011;64373;46.136;8.830;2023-11-19T08:59:34;0.35;;;0.20;;
75760;SDS011;64373;46.136;8.830;2023-11-19T09:01:59;0.75;;;0.30;;
75760;SDS011;64373;46.136;8.830;2023-11-19T09:04:25;1.27;;;0.40;;
75760;SDS011;64373;46.136;8.830;2023-11-19T09:06:50;0.40;;;0.30;;
75760;SDS011;64373;46.136;8.830;2023-11-19T09:09:16;0.95;;;0.30;;
75760;SDS011;64373;46.136;8.830;2023-11-19T09:11:42;0.50;;;0.30;;
75760;SDS011;64373;46.136;8.830;2023-11-19T09:14:07;0.68;;;0.30;;
75760;SDS011;64373;46.136;8.830;2023-11-19T09:16:33;0.68;;;0.30;;
75760;SDS011;64373;46.136;8.830;2023-11-19T09:18:59;0.88;;;0.30;;
75760;SDS011;64373;46.136;8.830;2023-11-19T09:21:25;0.40;;;0.10;;
75760;SDS011;64373;46.136;8.830;2023-11-19T09:23:51;0.35;;;0.30;;
75760;SDS011;64373;46.136;8.830;2023-11-19T09:26:18;0.10;;;0.10;;
75760;SDS011;64373;46.136;8.830;2023-11-19T09:28:43;0.20;;;0.20;;
75760;SDS011;64373;46.136;8.830;2023-11-19T09:31:15;0.15;;;0.15;;
75760;SDS011;64373;46.136;8.830;2023-11-19T09:33:41;0.35;;;0.20;;
75760;SDS011;64373;46.136;8.830;2023-11-19T09:36:07;0.80;;;0.25;;
75760;SDS011;64373;46.136;8.830;2023-11-19T09:38:33;0.57;;;0.20;;
75760;SDS011;64373;46.136;8.830;2023-11-19T09:40:59;0.32;;;0.10;;
75760;SDS011;64373;46.136;8.830;2023-11-19T09:43:27;0.20;;;0.10;;
75760;SDS011;64373;46.136;8.830;2023-11-19T09:45:56;0.22;;;0.20;;
75760;SDS011;64373;46.136;8.830;2023-11-19T09:48:22;0.00;;;0.00;;
75760;SDS011;64373;46.136;8.830;2023-11-19T09:50:50;0.15;;;0.10;;
75760;SDS011;64373;46.136;8.830;2023-11-19T09:53:15;0.10;;;0.10;;
75760;SDS011;64373;46.136;8.830;2023-11-19T09:55:41;0.93;;;0.20;;
75760;SDS011;64373;46.136;8.830;2023-11-19T09:58:07;0.30;;;0.10;;
75760;SDS011;64373;46.136;8.830;2023-11-19T10:00:33;0.10;;;0.10;;
75760;SDS011;64373;46.136;8.830;2023-11-19T10:02:59;0.10;;;0.00;;
75760;SDS011;64373;46.136;8.830;2023-11-19T10:05:25;0.20;;;0.00;;
75760;SDS011;64373;46.136;8.830;2023-11-19T10:07:51;0.17;;;0.08;;
75760;SDS011;64373;46.136;8.830;2023-11-19T10:10:17;0.10;;;0.10;;
75760;SDS011;64373;46.136;8.830;2023-11-19T10:12:47;0.20;;;0.20;;
75760;SDS011;64373;46.136;8.830;2023-11-19T10:15:21;0.10;;;0.10;;
75760;SDS011;64373;46.136;8.830;2023-11-19T10:17:58;0.25;;;0.10;;
75760;SDS011;64373;46.136;8.830;2023-11-19T10:20:23;0.10;;;0.00;;
75760;SDS011;64373;46.136;8.830;2023-11-19T10:22:52;0.17;;;0.10;;
75760;SDS011;64373;46.136;8.830;2023-11-19T10:27:52;0.10;;;0.10;;
75760;SDS011;64373;46.136;8.830;2023-11-19T10:30:22;0.20;;;0.10;;
75760;SDS011;64373;46.136;8.830;2023-11-19T10:33:08;0.20;;;0.10;;
75760;SDS011;64373;46.136;8.830;2023-11-19T10:35:35;0.40;;;0.30;;
75760;SDS011;64373;46.136;8.830;2023-11-19T10:38:13;0.75;;;0.40;;
75760;SDS011;64373;46.136;8.830;2023-11-19T10:40:40;0.70;;;0.60;;
75760;SDS011;64373;46.136;8.830;2023-11-19T10:43:06;0.60;;;0.60;;
75760;SDS011;64373;46.136;8.830;2023-11-19T10:45:35;0.70;;;0.60;;
75760;SDS011;64373;46.136;8.830;2023-11-19T10:48:04;0.70;;;0.47;;
75760;SDS011;64373;46.136;8.830;2023-11-19T10:50:34;1.33;;;0.70;;
75760;SDS011;64373;46.136;8.830;2023-11-19T10:53:01;1.15;;;0.85;;
75760;SDS011;64373;46.136;8.830;2023-11-19T10:55:37;0.82;;;0.50;;
75760;SDS011;64373;46.136;8.830;2023-11-19T10:58:09;1.02;;;0.60;;
75760;SDS011;64373;46.136;8.830;2023-11-19T11:00:38;0.73;;;0.60;;
75760;SDS011;64373;46.136;8.830;2023-11-19T11:03:12;0.98;;;0.50;;
75760;SDS011;64373;46.136;8.830;2023-11-19T11:08:07;0.50;;;0.30;;
75760;SDS011;64373;46.136;8.830;2023-11-19T11:10:35;0.52;;;0.30;;
75760;SDS011;64373;46.136;8.830;2023-11-19T11:13:05;0.52;;;0.32;;
75760;SDS011;64373;46.136;8.830;2023-11-19T11:15:30;0.68;;;0.30;;
75760;SDS011;64373;46.136;8.830;2023-11-19T11:18:00;0.57;;;0.20;;
75760;SDS011;64373;46.136;8.830;2023-11-19T11:20:27;0.20;;;0.20;;
75760;SDS011;64373;46.136;8.830;2023-11-19T11:25:40;0.25;;;0.17;;
75760;SDS011;64373;46.136;8.830;2023-11-19T11:28:18;0.30;;;0.30;;
75760;SDS011;64373;46.136;8.830;2023-11-19T11:31:34;0.10;;;0.10;;
75760;SDS011;64373;46.136;8.830;2023-11-19T11:37:01;0.10;;;0.10;;
75760;SDS011;64373;46.136;8.830;2023-11-19T11:39:35;0.10;;;0.10;;
75760;SDS011;64373;46.136;8.830;2023-11-19T11:44:58;0.98;;;0.60;;
75760;SDS011;64373;46.136;8.830;2023-11-19T11:50:11;0.60;;;0.30;;
75760;SDS011;64373;46.136;8.830;2023-11-19T11:53:26;0.32;;;0.30;;
75760;SDS011;64373;46.136;8.830;2023-11-19T11:55:34;0.35;;;0.30;;
75760;SDS011;64373;46.136;8.830;2023-11-19T12:00:28;0.65;;;0.30;;
75760;SDS011;64373;46.136;8.830;2023-11-19T12:03:02;0.20;;;0.20;;
75760;SDS011;64373;46.136;8.830;2023-11-19T12:05:28;0.43;;;0.10;;
75760;SDS011;64373;46.136;8.830;2023-11-19T12:07:55;0.22;;;0.20;;
75760;SDS011;64373;46.136;8.830;2023-11-19T12:10:29;1.00;;;0.20;;
75760;SDS011;64373;46.136;8.830;2023-11-19T12:12:58;0.35;;;0.20;;
75760;SDS011;64373;46.136;8.830;2023-11-19T12:15:25;0.22;;;0.20;;
75760;SDS011;64373;46.136;8.830;2023-11-19T12:17:53;0.65;;;0.28;;
75760;SDS011;64373;46.136;8.830;2023-11-19T12:20:23;0.20;;;0.20;;
75760;SDS011;64373;46.136;8.830;2023-11-19T12:22:50;0.57;;;0.40;;
75760;SDS011;64373;46.136;8.830;2023-11-19T12:25:16;0.55;;;0.40;;
75760;SDS011;64373;46.136;8.830;2023-11-19T12:27:46;0.50;;;0.32;;
75760;SDS011;64373;46.136;8.830;2023-11-19T12:30:16;0.73;;;0.35;;
75760;SDS011;64373;46.136;8.830;2023-11-19T12:32:52;0.30;;;0.30;;
75760;SDS011;64373;46.136;8.830;2023-11-19T12:35:22;0.35;;;0.30;;
75760;SDS011;64373;46.136;8.830;2023-11-19T12:37:51;0.60;;;0.20;;
75760;SDS011;64373;46.136;8.830;2023-11-19T12:40:18;0.70;;;0.30;;
75760;SDS011;64373;46.136;8.830;2023-11-19T12:42:48;0.70;;;0.40;;
75760;SDS011;64373;46.136;8.830;2023-11-19T12:45:14;1.17;;;0.90;;
75760;SDS011;64373;46.136;8.830;2023-11-19T12:47:41;0.93;;;0.65;;
75760;SDS011;64373;46.136;8.830;2023-11-19T12:50:13;1.35;;;0.80;;
75760;SDS011;64373;46.136;8.830;2023-11-19T12:52:39;0.98;;;0.60;;
75760;SDS011;64373;46.136;8.830;2023-11-19T12:55:05;0.93;;;0.63;;
75760;SDS011;64373;46.136;8.830;2023-11-19T12:57:49;1.27;;;0.80;;
75760;SDS011;64373;46.136;8.830;2023-11-19T13:00:18;1.63;;;0.70;;
75760;SDS011;64373;46.136;8.830;2023-11-19T13:02:48;1.05;;;0.80;;
75760;SDS011;64373;46.136;8.830;2023-11-19T13:05:24;2.65;;;1.90;;
75760;SDS011;64373;46.136;8.830;2023-11-19T13:08:00;2.67;;;2.08;;
75760;SDS011;64373;46.136;8.830;2023-11-19T13:13:14;1.90;;;1.38;;
75760;SDS011;64373;46.136;8.830;2023-11-19T13:15:39;2.00;;;1.20;;
75760;SDS011;64373;46.136;8.830;2023-11-19T13:18:05;1.95;;;1.30;;
75760;SDS011;64373;46.136;8.830;2023-11-19T13:20:31;1.65;;;0.95;;
75760;SDS011;64373;46.136;8.830;2023-11-19T13:22:58;1.77;;;1.10;;
75760;SDS011;64373;46.136;8.830;2023-11-19T13:25:27;1.45;;;0.77;;
75760;SDS011;64373;46.136;8.830;2023-11-19T13:27:54;0.70;;;0.70;;
75760;SDS011;64373;46.136;8.830;2023-11-19T13:30:20;0.85;;;0.68;;
75760;SDS011;64373;46.136;8.830;2023-11-19T13:32:50;0.70;;;0.50;;
75760;SDS011;64373;46.136;8.830;2023-11-19T13:35:16;0.52;;;0.40;;
75760;SDS011;64373;46.136;8.830;2023-11-19T13:37:42;0.75;;;0.60;;
75760;SDS011;64373;46.136;8.830;2023-11-19T13:40:09;0.90;;;0.65;;
75760;SDS011;64373;46.136;8.830;2023-11-19T13:42:38;0.80;;;0.50;;
75760;SDS011;64373;46.136;8.830;2023-11-19T13:45:13;0.40;;;0.30;;
75760;SDS011;64373;46.136;8.830;2023-11-19T13:47:40;1.08;;;0.50;;
75760;SDS011;64373;46.136;8.830;2023-11-19T13:50:07;0.85;;;0.40;;
75760;SDS011;64373;46.136;8.830;2023-11-19T13:52:34;0.80;;;0.40;;
75760;SDS011;64373;46.136;8.830;2023-11-19T13:55:02;0.40;;;0.30;;
75760;SDS011;64373;46.136;8.830;2023-11-19T13:57:29;0.30;;;0.30;;
75760;SDS011;64373;46.136;8.830;2023-11-19T13:59:56;0.47;;;0.28;;
75760;SDS011;64373;46.136;8.830;2023-11-19T14:02:22;0.38;;;0.17;;
75760;SDS011;64373;46.136;8.830;2023-11-19T14:04:47;0.50;;;0.22;;
75760;SDS011;64373;46.136;8.830;2023-11-19T14:07:13;0.25;;;0.20;;
75760;SDS011;64373;46.136;8.830;2023-11-19T14:09:41;0.40;;;0.30;;
75760;SDS011;64373;46.136;8.830;2023-11-19T14:12:07;0.30;;;0.20;;
75760;SDS011;64373;46.136;8.830;2023-11-19T14:14:34;0.10;;;0.10;;
75760;SDS011;64373;46.136;8.830;2023-11-19T14:17:01;0.43;;;0.30;;
75760;SDS011;64373;46.136;8.830;2023-11-19T14:19:28;0.10;;;0.10;;
75760;SDS011;64373;46.136;8.830;2023-11-19T14:21:54;0.30;;;0.30;;
75760;SDS011;64373;46.136;8.830;2023-11-19T14:24:19;0.20;;;0.15;;
75760;SDS011;64373;46.136;8.830;2023-11-19T14:26:48;0.20;;;0.10;;
75760;SDS011;64373;46.136;8.830;2023-11-19T14:29:15;0.43;;;0.15;;
75760;SDS011;64373;46.136;8.830;2023-11-19T14:31:40;0.20;;;0.10;;
75760;SDS011;64373;46.136;8.830;2023-11-19T14:34:06;0.10;;;0.10;;
75760;SDS011;64373;46.136;8.830;2023-11-19T14:36:32;0.32;;;0.10;;
75760;SDS011;64373;46.136;8.830;2023-11-19T14:38:57;0.30;;;0.10;;
75760;SDS011;64373;46.136;8.830;2023-11-19T14:41:24;0.10;;;0.10;;
75760;SDS011;64373;46.136;8.830;2023-11-19T14:43:49;0.17;;;0.10;;
75760;SDS011;64373;46.136;8.830;2023-11-19T14:46:15;1.25;;;0.20;;
75760;SDS011;64373;46.136;8.830;2023-11-19T14:48:41;0.25;;;0.20;;
75760;SDS011;64373;46.136;8.830;2023-11-19T14:51:06;0.28;;;0.20;;
75760;SDS011;64373;46.136;8.830;2023-11-19T14:53:32;0.20;;;0.10;;
75760;SDS011;64373;46.136;8.830;2023-11-19T14:55:58;0.38;;;0.10;;
75760;SDS011;64373;46.136;8.830;2023-11-19T14:58:23;0.40;;;0.20;;
75760;SDS011;64373;46.136;8.830;2023-11-19T15:00:51;0.32;;;0.10;;
75760;SDS011;64373;46.136;8.830;2023-11-19T15:03:16;0.10;;;0.10;;
75760;SDS011;64373;46.136;8.830;2023-11-19T15:05:47;0.22;;;0.10;;
75760;SDS011;64373;46.136;8.830;2023-11-19T15:08:12;0.10;;;0.10;;
75760;SDS011;64373;46.136;8.830;2023-11-19T15:10:44;0.10;;;0.10;;